Tucson, AZ (85706)

1:52 AM MST on October 02, 2014 (GMT -0700)
State Prison South Wilmot | Change Station
CLOSE
Current Station
Personal Weather Station
Location: Tucson, AZ
Elevation: 864 m
Nearby Weather Stations

Elev 864 m 32.07 °N, 110.86 °W | Updated 7 minutes ago

Clear
Clear
18.1 °C
Feels Like 18.1 °C
N
1.6
Wind Variable Wind from SE
Gusts 4.8 km/h

Today
High -- | Low -- °C
--% Chance of Precip.
Yesterday
High -- | Low -- °C
Precip. -- mm
6:18 AM 6:07 PM
First Quarter, 56% visible
Pressure 1010 hPa
Visibility 16.1 kilometers
Clouds Clear
Dew Point 5 °C
Humidity 42%
Rainfall 0 mm
Snow Depth Not available.
UV 0 out of 12
Pollen 6.00 out of 12
Air Quality Not available.
Flu Activity Not available.
METAR KTUS 020753Z AUTO 14004KT 10SM CLR 19/04 A2996 RMK AO2 SLP105 T01890044

More Conditions Fewer Conditions

Pressure 1010 hPa
Visibility 16.1 kilometers
Clouds Clear
Dew Point 5 °C
Humidity 42%
Rainfall 0 mm
Snow Depth Not available.
UV 0 out of 12
Pollen 6.00 out of 12
Air Quality Not available.
Flu Activity Not available.
METAR KTUS 020753Z AUTO 14004KT 10SM CLR 19/04 A2996 RMK AO2 SLP105 T01890044

More Conditions Fewer Conditions

10-Day Weather Forecast

Almanac

Astronomy

Oct. 02, 2014 Rise Set
Actual Time 6:18 AM MST 6:07 PM MST
Civil Twilight 5:53 AM MST 6:31 PM MST
Nautical Twilight 5:25 AM MST 6:59 PM MST
Astronomical Twilight 4:56 AM MST 7:28 PM MST
Moon 1:58 PM MST No Moon Set
Length of Visible Light 12h 37m
Length of Day
11h 48m
Tomorrow will be 1m 57s shorter.
First Quarter, 56% of the Moon is Illuminated
Today
First Quarter
Oct 8
Full
Oct 15
Last Quarter
Oct 23
New
Oct 30
First Quarter

Today's Extremes

State Highs State Lows

Community

WunderPhotos

Upload Photos

1,758,196 photos uploaded!

WunderBlogs® & News

By Dr. Jeff Masters
Director of Meteorology, Weather Underground
By Kari Strenfel
Meteorologist, Weather Underground
By Christopher C. Burt
Weather Historian, Weather Underground
October 2, 2014
October 2, 2014
October 2, 2014

Nearby

Snow Depth

Station Depth Elevation
Snowslide Canyon 1 in 9730 ft
White Horse Lake 1 in 7180 ft
Happy Jack 0 in 7630 ft
Wildcat 0 in 7850 ft
Promontory 1 in 7930 ft

Earthquake Activity

City Distance Mag. Time & Date
No recent earthquake activity has been reported nearby.
Minimum magnitude displayed is 2.5.

Coastal Water Temperatures

Place Temperature
No Stations Reporting

Nearby Weather Stations